createdAt,value
2022-12-24T00:00:02.664Z,11.20
2022-12-24T00:02:29.300Z,11.20
2022-12-24T00:05:00.903Z,11.20
2022-12-24T00:07:29.708Z,11.10
2022-12-24T00:09:56.352Z,11.20
2022-12-24T00:12:23.665Z,11.20
2022-12-24T00:14:50.300Z,11.30
2022-12-24T00:17:16.978Z,11.20
2022-12-24T00:19:43.671Z,11.30
2022-12-24T00:22:10.540Z,11.30
2022-12-24T00:24:37.192Z,11.20
2022-12-24T00:27:05.660Z,11.20
2022-12-24T00:29:33.054Z,11.20
2022-12-24T00:32:00.174Z,11.20
2022-12-24T00:34:26.904Z,11.30
2022-12-24T00:36:53.711Z,11.20
2022-12-24T00:39:20.298Z,11.20
2022-12-24T00:41:46.940Z,11.20
2022-12-24T00:44:13.572Z,11.20
2022-12-24T00:46:41.699Z,11.20
2022-12-24T00:49:09.361Z,11.20
2022-12-24T00:51:37.091Z,11.10
2022-12-24T00:54:04.018Z,11.20
2022-12-24T00:56:30.851Z,11.20
2022-12-24T00:58:57.985Z,11.10
2022-12-24T01:01:25.349Z,11.10
2022-12-24T01:03:52.619Z,11.10
2022-12-24T01:06:21.062Z,11.10
2022-12-24T01:08:51.360Z,11.10
2022-12-24T01:11:18.371Z,11.00
2022-12-24T01:13:44.994Z,10.90
2022-12-24T01:16:20.346Z,10.90
2022-12-24T01:18:47.097Z,10.90
2022-12-24T01:21:14.694Z,11.00
2022-12-24T01:23:41.381Z,11.00
2022-12-24T01:26:08.128Z,10.90
2022-12-24T01:28:34.727Z,10.90
2022-12-24T01:31:01.392Z,10.90
2022-12-24T01:33:29.522Z,10.90
2022-12-24T01:35:56.163Z,10.70
2022-12-24T01:38:22.775Z,10.70
2022-12-24T01:41:07.942Z,10.70
2022-12-24T01:43:34.697Z,10.70
2022-12-24T01:46:12.242Z,10.60
2022-12-24T01:49:00.271Z,10.60
2022-12-24T01:51:35.993Z,10.50
2022-12-24T01:54:25.638Z,10.50
2022-12-24T01:56:58.274Z,10.50
2022-12-24T01:59:25.408Z,10.40
2022-12-24T02:01:54.140Z,10.40
2022-12-24T02:04:34.819Z,10.40
2022-12-24T02:07:01.699Z,10.30
2022-12-24T02:09:28.737Z,10.30
2022-12-24T02:11:56.067Z,10.20
2022-12-24T02:14:23.064Z,10.10
2022-12-24T02:17:06.973Z,10.10
2022-12-24T02:19:42.384Z,10.20
2022-12-24T02:22:11.753Z,10.10
2022-12-24T02:25:00.439Z,10.10
2022-12-24T02:27:40.674Z,10.10
2022-12-24T02:30:12.007Z,10.00
2022-12-24T02:33:05.878Z,10.00
2022-12-24T02:35:47.854Z,9.90
2022-12-24T02:38:17.635Z,9.90
2022-12-24T02:40:53.358Z,9.90
2022-12-24T02:43:24.418Z,9.90
2022-12-24T02:46:22.744Z,9.90
2022-12-24T02:48:50.673Z,9.80
2022-12-24T02:51:21.869Z,9.70
2022-12-24T02:53:48.466Z,9.70
2022-12-24T02:56:41.919Z,9.80
2022-12-24T02:59:34.853Z,9.70
2022-12-24T03:02:25.295Z,9.70
2022-12-24T03:05:10.424Z,9.60
2022-12-24T03:07:44.953Z,9.60
2022-12-24T03:10:39.444Z,9.60
2022-12-24T03:13:17.377Z,9.60
2022-12-24T03:15:45.760Z,9.60
2022-12-24T03:18:15.631Z,9.70
2022-12-24T03:20:45.880Z,9.70
2022-12-24T03:23:13.280Z,9.80
2022-12-24T03:25:42.640Z,9.80
2022-12-24T03:28:12.407Z,9.90
2022-12-24T03:30:43.942Z,9.80
2022-12-24T03:33:11.205Z,9.80
2022-12-24T03:35:37.828Z,9.90
2022-12-24T03:38:04.914Z,9.80
2022-12-24T03:40:31.576Z,9.90
2022-12-24T03:42:58.537Z,10.00
2022-12-24T03:45:25.305Z,10.00
2022-12-24T03:47:51.982Z,10.00
2022-12-24T03:50:18.637Z,10.00
2022-12-24T03:52:45.257Z,10.10
2022-12-24T03:55:11.997Z,10.10
2022-12-24T03:57:38.562Z,10.10
2022-12-24T04:00:06.421Z,10.20
2022-12-24T04:02:33.071Z,10.20
2022-12-24T04:04:59.836Z,10.20
2022-12-24T04:07:27.131Z,10.20
2022-12-24T04:09:53.731Z,10.20
2022-12-24T04:12:20.331Z,10.30
2022-12-24T04:14:47.085Z,10.40
2022-12-24T04:17:13.684Z,10.40
2022-12-24T04:19:40.304Z,10.40
2022-12-24T04:22:06.955Z,10.50
2022-12-24T04:24:33.703Z,10.50
2022-12-24T04:27:00.293Z,10.40
2022-12-24T04:29:26.939Z,10.40
2022-12-24T04:31:53.744Z,10.50
2022-12-24T04:34:20.429Z,10.60
2022-12-24T04:36:47.104Z,10.60
2022-12-24T04:39:13.692Z,10.50
2022-12-24T04:41:40.317Z,10.60
2022-12-24T04:44:06.930Z,10.60
2022-12-24T04:46:33.747Z,10.50
2022-12-24T04:49:01.120Z,10.50
2022-12-24T04:51:28.637Z,10.50
2022-12-24T04:53:56.752Z,10.60
2022-12-24T04:56:26.568Z,10.60
2022-12-24T04:58:53.574Z,10.60
2022-12-24T05:01:23.453Z,10.60
2022-12-24T05:03:50.745Z,10.60
2022-12-24T05:06:21.056Z,10.60
2022-12-24T05:08:47.887Z,10.60
2022-12-24T05:11:15.839Z,10.60
2022-12-24T05:13:47.089Z,10.70
2022-12-24T05:16:15.964Z,10.70
2022-12-24T05:18:43.010Z,10.60
2022-12-24T05:21:11.430Z,10.60
2022-12-24T05:23:57.251Z,10.60
2022-12-24T05:26:28.840Z,10.60
2022-12-24T05:28:57.513Z,10.60
2022-12-24T05:31:25.823Z,10.50
2022-12-24T05:33:54.578Z,10.50
2022-12-24T05:36:22.014Z,10.50
2022-12-24T05:38:49.159Z,10.50
2022-12-24T05:41:16.197Z,10.60
2022-12-24T05:43:42.869Z,10.60
2022-12-24T05:46:15.592Z,10.60
2022-12-24T05:48:42.331Z,10.70
2022-12-24T05:51:11.241Z,10.70
2022-12-24T05:53:38.617Z,10.80
2022-12-24T05:56:10.601Z,10.70
2022-12-24T05:58:38.510Z,10.70
2022-12-24T06:01:06.349Z,10.70
2022-12-24T06:03:33.623Z,10.70
2022-12-24T06:06:01.704Z,10.70
2022-12-24T06:08:29.279Z,10.70
2022-12-24T06:10:58.042Z,10.80
2022-12-24T06:13:25.089Z,10.80
2022-12-24T06:15:55.017Z,10.70
2022-12-24T06:18:22.012Z,10.70
2022-12-24T06:20:53.614Z,10.70
2022-12-24T06:23:20.917Z,10.60
2022-12-24T06:25:49.018Z,10.70
2022-12-24T06:28:15.686Z,10.70
2022-12-24T06:30:47.191Z,10.70
2022-12-24T06:33:14.291Z,10.60
2022-12-24T06:35:41.431Z,10.70
2022-12-24T06:38:08.094Z,10.60
2022-12-24T06:40:34.708Z,10.70
2022-12-24T06:43:01.341Z,10.60
2022-12-24T06:45:27.935Z,10.60
2022-12-24T06:47:54.556Z,10.60
2022-12-24T06:50:21.147Z,10.60
2022-12-24T06:52:47.897Z,10.60
2022-12-24T06:55:14.898Z,10.60
2022-12-24T06:57:41.575Z,10.60
2022-12-24T07:00:10.070Z,10.70
2022-12-24T07:02:40.913Z,10.70
2022-12-24T07:05:10.377Z,10.80
2022-12-24T07:07:38.796Z,10.80
2022-12-24T07:10:06.367Z,10.80
2022-12-24T07:12:33.374Z,10.80
2022-12-24T07:15:00.035Z,10.90
2022-12-24T07:17:26.846Z,10.80
2022-12-24T07:19:53.580Z,10.80
2022-12-24T07:22:20.328Z,10.80
2022-12-24T07:24:46.936Z,10.70
2022-12-24T07:27:13.609Z,10.80
2022-12-24T07:29:41.179Z,10.80
2022-12-24T07:32:08.085Z,10.80
2022-12-24T07:34:35.220Z,10.70
2022-12-24T07:37:01.895Z,10.70
2022-12-24T07:39:28.593Z,10.70
2022-12-24T07:41:55.191Z,10.80
2022-12-24T07:44:21.888Z,10.70
2022-12-24T07:46:48.523Z,10.70
2022-12-24T07:49:15.222Z,10.60
2022-12-24T07:51:41.925Z,10.70
2022-12-24T07:54:08.525Z,10.70
2022-12-24T07:56:35.204Z,10.70
2022-12-24T07:59:01.794Z,10.70
2022-12-24T08:01:28.482Z,10.70
2022-12-24T08:03:55.509Z,10.70
2022-12-24T08:06:22.511Z,10.60
2022-12-24T08:08:49.299Z,10.60
2022-12-24T08:11:16.374Z,10.70
2022-12-24T08:13:43.044Z,10.70
2022-12-24T08:16:09.715Z,10.70
2022-12-24T08:18:36.383Z,10.70
2022-12-24T08:21:03.389Z,10.70
2022-12-24T08:23:30.061Z,10.70
2022-12-24T08:25:56.633Z,10.70
2022-12-24T08:28:23.282Z,10.60
2022-12-24T08:30:51.521Z,10.70
2022-12-24T08:33:19.440Z,10.70
2022-12-24T08:35:50.699Z,10.70
2022-12-24T08:38:17.344Z,10.70
2022-12-24T08:40:44.572Z,10.70
2022-12-24T08:43:11.199Z,10.70
2022-12-24T08:45:40.891Z,10.80
2022-12-24T08:48:08.808Z,10.90
2022-12-24T08:50:38.074Z,10.80
2022-12-24T08:53:04.709Z,10.70
2022-12-24T08:55:31.464Z,10.90
2022-12-24T08:57:58.370Z,10.90
2022-12-24T09:00:25.005Z,11.00
2022-12-24T09:02:51.833Z,11.00
2022-12-24T09:05:18.739Z,11.00
2022-12-24T09:07:45.395Z,11.10
2022-12-24T09:10:12.183Z,11.20
2022-12-24T09:12:39.098Z,11.10
2022-12-24T09:15:08.115Z,11.10
2022-12-24T09:17:36.034Z,11.20
2022-12-24T09:20:04.396Z,11.20
2022-12-24T09:22:31.042Z,11.20
2022-12-24T09:24:57.648Z,11.10
2022-12-24T09:27:24.322Z,11.00
2022-12-24T09:29:50.942Z,11.10
2022-12-24T09:32:18.426Z,11.20
2022-12-24T09:34:45.055Z,11.20
2022-12-24T09:37:11.688Z,11.30
2022-12-24T09:39:38.360Z,11.30
2022-12-24T09:42:40.682Z,11.30
2022-12-24T09:45:26.201Z,11.40
2022-12-24T09:47:59.949Z,11.40
2022-12-24T09:50:39.476Z,11.50
2022-12-24T09:53:36.479Z,11.50
2022-12-24T09:56:15.980Z,11.50
2022-12-24T09:58:47.876Z,11.60
2022-12-24T10:01:15.850Z,11.50
2022-12-24T10:03:43.265Z,11.40
2022-12-24T10:06:24.990Z,11.50
2022-12-24T10:09:19.615Z,11.40
2022-12-24T10:12:20.260Z,11.60
2022-12-24T10:15:24.455Z,11.90
2022-12-24T10:18:12.177Z,12.00
2022-12-24T10:20:50.910Z,12.10
2022-12-24T10:23:32.901Z,12.20
2022-12-24T10:26:07.867Z,12.30
2022-12-24T10:28:46.353Z,12.40
2022-12-24T10:31:14.424Z,12.40
2022-12-24T10:33:46.953Z,12.50
2022-12-24T10:36:20.458Z,12.50
2022-12-24T10:38:47.350Z,12.50
2022-12-24T10:41:16.136Z,12.70
2022-12-24T10:43:44.925Z,12.80
2022-12-24T10:46:17.721Z,12.80
2022-12-24T10:48:50.963Z,12.80
2022-12-24T10:51:33.646Z,12.70
2022-12-24T10:54:02.996Z,12.70
2022-12-24T10:56:29.603Z,12.70
2022-12-24T10:58:56.258Z,12.60
2022-12-24T11:01:43.799Z,12.60
2022-12-24T11:04:19.676Z,12.70
2022-12-24T11:07:06.950Z,12.80
2022-12-24T11:09:35.481Z,12.70
2022-12-24T11:12:09.424Z,12.60
2022-12-24T11:14:39.951Z,12.60
2022-12-24T11:17:06.724Z,12.50
2022-12-24T11:19:37.073Z,12.50
2022-12-24T11:22:18.250Z,12.50
2022-12-24T11:24:50.108Z,12.40
2022-12-24T11:27:40.485Z,12.40
2022-12-24T11:30:15.937Z,12.50
2022-12-24T11:32:42.643Z,12.50
2022-12-24T11:35:24.155Z,12.60
2022-12-24T11:38:03.115Z,12.50
2022-12-24T11:40:41.821Z,12.40
2022-12-24T11:43:18.392Z,12.30
2022-12-24T11:45:54.100Z,12.30
2022-12-24T11:48:34.695Z,12.30
2022-12-24T11:51:04.080Z,12.30
2022-12-24T11:53:49.574Z,12.30
2022-12-24T11:56:29.059Z,12.20
2022-12-24T11:59:03.085Z,12.30
2022-12-24T12:01:42.284Z,12.30
2022-12-24T12:04:22.181Z,12.30
2022-12-24T12:07:15.230Z,12.30
2022-12-24T12:09:47.728Z,12.30
2022-12-24T12:12:17.430Z,12.30
2022-12-24T12:15:19.393Z,12.30
2022-12-24T12:18:11.023Z,12.40
2022-12-24T12:20:51.990Z,12.30
2022-12-24T12:23:28.760Z,12.30
2022-12-24T12:25:59.046Z,12.00
2022-12-24T12:28:53.546Z,12.00
2022-12-24T12:31:51.957Z,12.10
2022-12-24T12:34:33.832Z,12.10
2022-12-24T12:37:02.713Z,12.10
2022-12-24T12:39:31.628Z,12.00
2022-12-24T12:42:09.994Z,12.00
2022-12-24T12:44:49.761Z,12.10
2022-12-24T12:47:43.931Z,12.20
2022-12-24T12:50:25.382Z,12.10
2022-12-24T12:53:29.307Z,12.10
2022-12-24T12:56:06.560Z,12.10
2022-12-24T12:58:48.024Z,12.20
2022-12-24T13:01:33.368Z,12.40
2022-12-24T13:04:31.011Z,12.40
2022-12-24T13:07:22.186Z,12.30
2022-12-24T13:10:28.916Z,12.10
2022-12-24T13:13:07.577Z,12.10
2022-12-24T13:15:48.195Z,12.10
2022-12-24T13:18:17.952Z,12.00
2022-12-24T13:20:49.133Z,12.00
2022-12-24T13:23:22.528Z,12.10
2022-12-24T13:25:57.932Z,12.20
2022-12-24T13:28:24.679Z,12.20
2022-12-24T13:31:24.539Z,12.30
2022-12-24T13:33:56.959Z,12.50
2022-12-24T13:36:24.201Z,12.50
2022-12-24T13:38:57.929Z,12.40
2022-12-24T13:41:38.700Z,12.30
2022-12-24T13:44:06.276Z,12.40
2022-12-24T13:46:59.974Z,12.50
2022-12-24T13:49:41.616Z,12.50
2022-12-24T13:52:11.234Z,12.40
2022-12-24T13:55:03.991Z,12.50
2022-12-24T13:57:44.845Z,12.40
2022-12-24T14:00:20.690Z,12.40
2022-12-24T14:02:50.821Z,12.30
2022-12-24T14:05:33.145Z,12.40
2022-12-24T14:08:03.823Z,12.40
2022-12-24T14:10:46.494Z,12.30
2022-12-24T14:13:52.819Z,12.40
2022-12-24T14:16:30.283Z,12.40
2022-12-24T14:19:11.055Z,12.40
2022-12-24T14:21:44.483Z,12.50
2022-12-24T14:24:17.864Z,12.50
2022-12-24T14:26:49.701Z,12.40
2022-12-24T14:29:24.830Z,12.50
2022-12-24T14:31:56.586Z,12.40
2022-12-24T14:34:23.655Z,12.30
2022-12-24T14:36:54.606Z,12.40
2022-12-24T14:39:24.419Z,12.30
2022-12-24T14:42:16.733Z,12.40
2022-12-24T14:44:56.069Z,12.30
2022-12-24T14:47:43.154Z,12.30
2022-12-24T14:50:29.499Z,12.20
2022-12-24T14:53:19.251Z,12.10
2022-12-24T14:55:48.313Z,12.10
2022-12-24T14:58:36.815Z,12.00
2022-12-24T15:01:26.231Z,12.00
2022-12-24T15:04:18.015Z,12.00
2022-12-24T15:06:52.532Z,12.00
2022-12-24T15:09:21.235Z,12.00
2022-12-24T15:11:50.023Z,11.90
2022-12-24T15:14:18.292Z,11.90
2022-12-24T15:17:05.381Z,11.90
2022-12-24T15:19:38.608Z,11.80
2022-12-24T15:22:30.234Z,11.80
2022-12-24T15:24:56.897Z,11.70
2022-12-24T15:27:26.461Z,11.80
2022-12-24T15:29:56.681Z,11.70
2022-12-24T15:32:23.945Z,11.60
2022-12-24T15:34:55.519Z,11.60
2022-12-24T15:37:37.659Z,11.50
2022-12-24T15:40:20.463Z,11.50
2022-12-24T15:42:47.393Z,11.40
2022-12-24T15:45:26.709Z,11.40
2022-12-24T15:48:17.018Z,11.40
2022-12-24T15:50:46.358Z,11.40
2022-12-24T15:53:35.304Z,11.30
2022-12-24T15:56:04.947Z,11.30
2022-12-24T15:58:37.844Z,11.30
2022-12-24T16:01:13.057Z,11.30
2022-12-24T16:03:51.673Z,11.30
2022-12-24T16:06:19.185Z,11.40
2022-12-24T16:08:47.091Z,11.30
2022-12-24T16:11:19.088Z,11.30
2022-12-24T16:14:03.572Z,11.40
2022-12-24T16:16:35.071Z,11.40
2022-12-24T16:19:03.327Z,11.40
2022-12-24T16:21:34.631Z,11.40
2022-12-24T16:24:14.804Z,11.40
2022-12-24T16:26:41.431Z,11.40
2022-12-24T16:29:09.891Z,11.30
2022-12-24T16:31:43.342Z,11.30
2022-12-24T16:34:17.046Z,11.30
2022-12-24T16:36:45.538Z,11.20
2022-12-24T16:39:38.465Z,11.20
2022-12-24T16:42:23.689Z,11.10
2022-12-24T16:44:53.172Z,11.10
2022-12-24T16:47:27.327Z,11.00
2022-12-24T16:49:54.103Z,10.90
2022-12-24T16:52:23.881Z,10.80
2022-12-24T16:54:50.919Z,10.80
2022-12-24T16:57:18.086Z,10.70
2022-12-24T16:59:44.729Z,10.60
2022-12-24T17:02:15.838Z,10.50
2022-12-24T17:04:43.353Z,10.50
2022-12-24T17:07:15.973Z,10.50
2022-12-24T17:09:43.275Z,10.40
2022-12-24T17:12:10.450Z,10.40
2022-12-24T17:14:38.830Z,10.30
2022-12-24T17:17:05.699Z,10.30
2022-12-24T17:19:32.544Z,10.30
2022-12-24T17:21:59.167Z,10.30
2022-12-24T17:24:25.805Z,10.30
2022-12-24T17:26:52.442Z,10.20
2022-12-24T17:29:19.084Z,10.20
2022-12-24T17:31:45.702Z,10.10
2022-12-24T17:34:12.384Z,10.20
2022-12-24T17:36:40.138Z,10.10
2022-12-24T17:39:06.769Z,10.10
2022-12-24T17:41:33.428Z,10.10
2022-12-24T17:44:00.097Z,10.10
2022-12-24T17:46:26.759Z,10.00
2022-12-24T17:48:53.527Z,10.00
2022-12-24T17:51:22.744Z,9.90
2022-12-24T17:53:49.801Z,9.80
2022-12-24T17:56:17.299Z,9.80
2022-12-24T17:58:45.036Z,9.70
2022-12-24T18:01:20.287Z,9.70
2022-12-24T18:03:48.399Z,9.60
2022-12-24T18:06:16.026Z,9.60
2022-12-24T18:08:43.800Z,9.50
2022-12-24T18:11:20.964Z,9.50
2022-12-24T18:13:48.887Z,9.40
2022-12-24T18:16:21.601Z,9.40
2022-12-24T18:18:49.771Z,9.30
2022-12-24T18:21:18.389Z,9.30
2022-12-24T18:23:47.612Z,9.20
2022-12-24T18:26:15.670Z,9.20
2022-12-24T18:28:42.789Z,9.10
2022-12-24T18:31:13.372Z,9.10
2022-12-24T18:33:40.364Z,9.00
2022-12-24T18:36:07.840Z,9.00
2022-12-24T18:38:34.721Z,9.00
2022-12-24T18:41:07.200Z,9.00
2022-12-24T18:43:34.274Z,8.90
2022-12-24T18:46:09.893Z,8.90
2022-12-24T18:48:36.865Z,8.90
2022-12-24T18:51:05.242Z,8.80
2022-12-24T18:53:31.981Z,8.80
2022-12-24T18:56:13.370Z,8.80
2022-12-24T18:58:42.126Z,8.80
2022-12-24T19:01:21.170Z,8.80
2022-12-24T19:03:49.238Z,8.90
2022-12-24T19:06:17.178Z,8.90
2022-12-24T19:08:56.909Z,8.90
2022-12-24T19:11:25.063Z,8.90
2022-12-24T19:13:53.119Z,8.90
2022-12-24T19:16:20.748Z,8.90
2022-12-24T19:18:47.614Z,8.90
2022-12-24T19:21:15.687Z,8.90
2022-12-24T19:23:42.816Z,8.80
2022-12-24T19:26:13.833Z,8.80
2022-12-24T19:28:40.524Z,8.80
2022-12-24T19:31:13.938Z,8.80
2022-12-24T19:33:46.259Z,8.80
2022-12-24T19:36:15.548Z,8.80
2022-12-24T19:38:42.645Z,8.70
2022-12-24T19:41:12.542Z,8.70
2022-12-24T19:43:44.406Z,8.70
2022-12-24T19:46:12.386Z,8.70
2022-12-24T19:48:39.264Z,8.70
2022-12-24T19:51:08.813Z,8.70
2022-12-24T19:53:36.316Z,8.70
2022-12-24T19:56:03.723Z,8.70
2022-12-24T19:58:32.664Z,8.80
2022-12-24T20:01:11.192Z,8.70
2022-12-24T20:03:41.247Z,8.70
2022-12-24T20:06:08.618Z,8.80
2022-12-24T20:08:36.939Z,8.70
2022-12-24T20:11:08.275Z,8.80
2022-12-24T20:13:36.072Z,8.70
2022-12-24T20:16:08.509Z,8.70
2022-12-24T20:18:35.320Z,8.70
2022-12-24T20:21:03.777Z,8.70
2022-12-24T20:23:30.791Z,8.70
2022-12-24T20:26:02.997Z,8.80
2022-12-24T20:28:32.736Z,8.80
2022-12-24T20:30:59.382Z,8.90
2022-12-24T20:33:26.290Z,9.00
2022-12-24T20:35:53.020Z,9.00
2022-12-24T20:38:19.710Z,9.00
2022-12-24T20:40:46.675Z,9.00
2022-12-24T20:43:13.379Z,9.10
2022-12-24T20:45:40.851Z,9.10
2022-12-24T20:48:08.071Z,9.10
2022-12-24T20:50:34.761Z,9.20
2022-12-24T20:53:01.431Z,9.10
2022-12-24T20:55:28.167Z,9.20
2022-12-24T20:57:54.772Z,9.20
2022-12-24T21:00:21.729Z,9.10
2022-12-24T21:02:48.589Z,9.10
2022-12-24T21:05:15.617Z,9.20
2022-12-24T21:07:43.562Z,9.20
2022-12-24T21:10:12.253Z,9.20
2022-12-24T21:12:48.812Z,9.20
2022-12-24T21:15:25.610Z,9.20
2022-12-24T21:17:53.160Z,9.20
2022-12-24T21:20:20.231Z,9.20
2022-12-24T21:22:47.052Z,9.20
2022-12-24T21:25:13.988Z,9.20
2022-12-24T21:27:40.640Z,9.20
2022-12-24T21:30:09.267Z,9.20
2022-12-24T21:32:36.699Z,9.20
2022-12-24T21:35:03.812Z,9.20
2022-12-24T21:37:30.700Z,9.10
2022-12-24T21:39:57.344Z,9.10
2022-12-24T21:42:24.008Z,9.10
2022-12-24T21:44:50.691Z,9.10
2022-12-24T21:47:17.346Z,9.10
2022-12-24T21:50:02.624Z,9.10
2022-12-24T21:52:29.277Z,9.10
2022-12-24T21:54:55.957Z,9.10
2022-12-24T21:57:55.051Z,9.10
2022-12-24T22:00:21.830Z,9.10
2022-12-24T22:02:56.473Z,9.00
2022-12-24T22:05:25.992Z,9.00
2022-12-24T22:08:12.223Z,9.00
2022-12-24T22:10:58.371Z,9.00
2022-12-24T22:13:25.837Z,9.00
2022-12-24T22:15:54.000Z,9.00
2022-12-24T22:18:23.961Z,9.00
2022-12-24T22:20:51.685Z,9.00
2022-12-24T22:23:19.227Z,9.00
2022-12-24T22:25:46.127Z,9.00
2022-12-24T22:28:12.874Z,8.90
2022-12-24T22:30:41.458Z,8.90
2022-12-24T22:33:08.617Z,8.80
2022-12-24T22:35:39.583Z,8.80
2022-12-24T22:38:07.735Z,8.90
2022-12-24T22:40:34.365Z,8.90
2022-12-24T22:43:00.977Z,8.80
2022-12-24T22:45:27.701Z,8.80
2022-12-24T22:47:54.308Z,8.90
2022-12-24T22:50:21.164Z,8.90
2022-12-24T22:52:47.780Z,8.90
2022-12-24T22:55:14.503Z,8.90
2022-12-24T22:57:41.093Z,8.90
2022-12-24T23:00:34.014Z,8.90
2022-12-24T23:03:00.782Z,8.90
2022-12-24T23:05:27.464Z,8.90
2022-12-24T23:07:54.052Z,9.00
2022-12-24T23:10:20.639Z,8.90
2022-12-24T23:13:11.163Z,8.90
2022-12-24T23:15:41.257Z,8.90
2022-12-24T23:18:08.493Z,8.90
2022-12-24T23:20:39.279Z,9.00
2022-12-24T23:23:06.013Z,9.00
2022-12-24T23:25:33.053Z,9.00
2022-12-24T23:27:59.656Z,9.00
2022-12-24T23:30:26.331Z,9.10
2022-12-24T23:32:52.961Z,9.10
2022-12-24T23:35:19.573Z,9.10
2022-12-24T23:37:46.168Z,9.10
2022-12-24T23:40:12.918Z,9.10
2022-12-24T23:42:39.582Z,9.20
2022-12-24T23:45:06.834Z,9.20
2022-12-24T23:47:33.485Z,9.20
2022-12-24T23:50:00.162Z,9.20
2022-12-24T23:52:26.814Z,9.10
2022-12-24T23:54:53.464Z,9.20
2022-12-24T23:57:20.096Z,9.20
2022-12-24T23:59:46.763Z,9.30
